Time;durP1;ratioP1;P1;durP2;ratioP2;P2;SDS_P1;SDS_P2;PMS_P1;PMS_P2;Temp;Humidity;BMP_temperature;BMP_pressure;BME280_temperature;BME280_humidity;BME280_pressure;Samples;Min_cycle;Max_cycle;Signal;HPM_P1;HPM_P2
2022/10/24 00:01:24;;;;;;;3.70;1.50;;;;;;;16.50;100.00;100273.38;2612720;36;20023;-52
2022/10/24 00:03:53;;;;;;;9.43;1.92;;;;;;;16.69;100.00;100263.78;2612983;31;20030;-50
2022/10/24 00:06:22;;;;;;;2.40;1.52;;;;;;;16.70;100.00;100270.91;2612045;36;20026;-54
2022/10/24 00:08:53;;;;;;;6.78;1.70;;;;;;;16.75;100.00;100265.72;2612166;31;20034;-54
2022/10/24 00:11:24;;;;;;;6.57;2.30;;;;;;;16.72;100.00;100263.41;2612188;36;20034;-54
2022/10/24 00:13:54;;;;;;;5.75;2.05;;;;;;;16.72;100.00;100263.41;2615679;36;20038;-53
2022/10/24 00:16:22;;;;;;;7.20;2.22;;;;;;;16.84;100.00;100262.91;2615236;36;20044;-58
2022/10/24 00:18:51;;;;;;;6.20;1.93;;;;;;;16.84;100.00;100254.75;2615566;36;20031;-54
2022/10/24 00:21:19;;;;;;;3.75;1.40;;;;;;;16.75;100.00;100267.63;2615073;36;20042;-54
2022/10/24 00:23:47;;;;;;;2.88;1.70;;;;;;;16.92;100.00;100263.66;2615960;36;20030;-55
2022/10/24 00:26:18;;;;;;;7.80;1.90;;;;;;;16.89;100.00;100249.63;2614171;36;20042;-52
2022/10/24 00:28:47;;;;;;;4.25;1.60;;;;;;;16.92;100.00;100251.97;2615462;31;20035;-54
2022/10/24 00:31:18;;;;;;;4.17;1.90;;;;;;;16.82;100.00;100239.47;2615931;31;20053;-52
2022/10/24 00:33:47;;;;;;;5.78;2.03;;;;;;;16.95;100.00;100240.69;2614785;36;20061;-54
2022/10/24 00:36:18;;;;;;;6.93;2.40;;;;;;;16.73;100.00;100237.91;2614804;36;20034;-54
2022/10/24 00:38:47;;;;;;;3.88;2.17;;;;;;;16.70;100.00;100232.88;2616558;36;20515;-53
2022/10/24 00:41:19;;;;;;;9.13;2.03;;;;;;;16.76;100.00;100226.66;2614693;36;20547;-54
2022/10/24 00:43:48;;;;;;;9.13;2.33;;;;;;;16.65;100.00;100219.00;2616127;31;20038;-56
2022/10/24 00:46:18;;;;;;;8.75;1.77;;;;;;;16.68;100.00;100224.09;2614126;31;20027;-56
2022/10/24 00:48:48;;;;;;;4.82;2.20;;;;;;;16.74;100.00;100227.88;2616099;36;20026;-55
2022/10/24 00:51:23;;;;;;;6.03;2.38;;;;;;;16.75;100.00;100224.97;2614575;36;20042;-52
2022/10/24 00:53:54;;;;;;;7.32;2.00;;;;;;;16.87;100.00;100221.75;2615582;36;20034;-52
2022/10/24 00:56:29;;;;;;;4.65;1.80;;;;;;;16.80;100.00;100216.25;2612909;36;20053;-53
2022/10/24 00:58:59;;;;;;;7.63;2.15;;;;;;;16.76;100.00;100214.97;2615086;36;20038;-50
2022/10/24 01:01:29;;;;;;;10.38;2.15;;;;;;;16.84;100.00;100219.44;2615630;36;20057;-52
2022/10/24 01:03:57;;;;;;;7.90;2.22;;;;;;;16.88;100.00;100213.44;2614976;36;20066;-53
2022/10/24 01:06:40;;;;;;;6.67;1.97;;;;;;;16.82;100.00;100217.72;2615851;36;20037;-55
2022/10/24 01:09:30;;;;;;;6.85;2.35;;;;;;;16.80;100.00;100211.66;2615113;36;20034;-54
2022/10/24 01:12:11;;;;;;;4.70;1.80;;;;;;;16.73;100.00;100210.75;2615395;36;20077;-53
2022/10/24 01:14:51;;;;;;;8.52;1.90;;;;;;;16.73;100.00;100210.75;2614636;36;20038;-54
2022/10/24 01:17:31;;;;;;;5.30;2.08;;;;;;;16.89;100.00;100198.81;2615979;54;20034;-53
2022/10/24 01:20:23;;;;;;;5.13;2.05;;;;;;;16.76;100.00;100202.19;2615411;36;20065;-55
2022/10/24 01:23:05;;;;;;;9.40;1.92;;;;;;;16.92;100.00;100203.88;2616048;31;20065;-54
2022/10/24 01:25:45;;;;;;;6.20;1.92;;;;;;;16.85;100.00;100196.66;2614694;36;20026;-54
2022/10/24 01:28:20;;;;;;;5.22;2.08;;;;;;;16.75;100.00;100196.97;2615172;31;20085;-52
2022/10/24 01:30:55;;;;;;;3.35;2.10;;;;;;;16.75;100.00;100199.69;2613419;36;20065;-53
2022/10/24 01:33:31;;;;;;;8.48;1.85;;;;;;;16.79;100.00;100201.81;2606844;36;20035;-50
2022/10/24 01:36:04;;;;;;;6.13;2.20;;;;;;;16.76;100.00;100198.66;2616431;36;20062;-54
2022/10/24 01:38:37;;;;;;;6.85;2.10;;;;;;;16.83;100.00;100199.56;2614315;36;20039;-52
2022/10/24 01:41:09;;;;;;;4.03;1.70;;;;;;;16.82;100.00;100187.84;2615963;36;20058;-54
2022/10/24 01:43:43;;;;;;;3.00;1.70;;;;;;;16.96;100.00;100171.69;2615408;36;20022;-53
2022/10/24 01:46:17;;;;;;;6.05;1.88;;;;;;;16.92;100.00;100170.41;2614468;36;20593;-55
2022/10/24 01:48:48;;;;;;;4.55;1.67;;;;;;;16.94;100.00;100168.34;2616812;31;20022;-56
2022/10/24 01:51:20;;;;;;;4.20;1.75;;;;;;;17.06;100.00;100164.03;2615401;36;20082;-55
2022/10/24 01:53:49;;;;;;;7.43;2.30;;;;;;;16.85;100.00;100164.03;2615542;36;20061;-51
2022/10/24 01:56:18;;;;;;;4.15;1.52;;;;;;;16.78;100.00;100159.38;2614118;36;20051;-55
2022/10/24 01:58:46;;;;;;;5.43;1.70;;;;;;;16.94;100.00;100157.47;2616125;36;20432;-50
2022/10/24 02:01:23;;;;;;;6.63;1.70;;;;;;;16.91;100.00;100157.84;2614841;36;20034;-53
2022/10/24 02:03:56;;;;;;;7.28;1.90;;;;;;;16.93;100.00;100153.06;2617161;36;20038;-56
2022/10/24 02:06:28;;;;;;;5.07;1.88;;;;;;;16.85;100.00;100148.56;2616065;36;20420;-56
2022/10/24 02:09:01;;;;;;;6.10;1.50;;;;;;;16.93;100.00;100144.91;2614308;36;20026;-53
2022/10/24 02:11:29;;;;;;;4.05;1.80;;;;;;;16.84;100.00;100135.16;2615916;36;20468;-54
2022/10/24 02:14:04;;;;;;;5.07;1.97;;;;;;;16.88;100.00;100141.94;2616253;36;20038;-53
2022/10/24 02:16:36;;;;;;;8.15;2.10;;;;;;;16.87;100.00;100141.09;2614991;36;20688;-55
2022/10/24 02:19:06;;;;;;;4.55;1.70;;;;;;;16.87;100.00;100138.38;2616918;36;20552;-55
2022/10/24 02:21:41;;;;;;;3.35;1.80;;;;;;;16.90;100.00;100128.97;2615986;36;20038;-55
2022/10/24 02:24:20;;;;;;;5.18;2.78;;;;;;;16.77;100.00;100133.25;2616029;36;20034;-56
2022/10/24 02:26:52;;;;;;;6.22;1.85;;;;;;;16.85;100.00;100128.72;2615811;36;20023;-52
2022/10/24 02:29:26;;;;;;;4.57;2.00;;;;;;;16.80;100.00;100130.13;2616153;36;20034;-53
2022/10/24 02:32:00;;;;;;;7.43;2.00;;;;;;;16.95;100.00;100115.66;2615913;36;20027;-52
2022/10/24 02:34:33;;;;;;;3.70;2.03;;;;;;;16.89;100.00;100127.31;2615773;36;20039;-57
2022/10/24 02:37:04;;;;;;;5.75;1.63;;;;;;;16.82;100.00;100106.31;2615030;36;20038;-57
2022/10/24 02:39:34;;;;;;;5.28;1.80;;;;;;;16.77;100.00;100113.38;2613173;36;20039;-55
2022/10/24 02:42:04;;;;;;;6.90;2.03;;;;;;;16.92;100.00;100116.06;2612938;36;20029;-60
2022/10/24 02:44:34;;;;;;;6.03;2.10;;;;;;;16.83;100.00;100109.88;2612923;36;20041;-53
2022/10/24 02:47:07;;;;;;;4.15;1.70;;;;;;;16.96;100.00;100111.88;2612921;36;20039;-54
2022/10/24 02:49:36;;;;;;;5.45;1.83;;;;;;;16.84;100.00;100113.44;2613136;36;20026;-55
2022/10/24 02:52:05;;;;;;;3.57;1.60;;;;;;;16.79;100.00;100117.56;2613115;36;20463;-56
2022/10/24 02:54:33;;;;;;;;;;;;;;;16.72;100.00;100113.13;2613004;31;20800;-52
2022/10/24 02:57:03;;;;;;;5.60;1.85;;;;;;;16.76;100.00;100122.56;2613298;36;19954;-53
2022/10/24 02:59:32;;;;;;;8.10;2.30;;;;;;;16.76;100.00;100123.41;2612942;36;20029;-56
2022/10/24 03:02:00;;;;;;;5.73;2.17;;;;;;;16.60;100.00;100129.94;2613053;36;20038;-54
2022/10/24 03:04:31;;;;;;;3.85;1.67;;;;;;;16.70;100.00;100128.78;2613467;36;20034;-53
2022/10/24 03:06:59;;;;;;;4.47;2.03;;;;;;;16.70;100.00;100116.03;2613357;31;20038;-57
2022/10/24 03:09:28;;;;;;;3.03;1.57;;;;;;;16.61;100.00;100119.91;2616845;31;20043;-55
2022/10/24 03:11:56;;;;;;;5.73;1.97;;;;;;;16.56;100.00;100123.22;2616505;36;20023;-56
2022/10/24 03:14:24;;;;;;;3.53;1.37;;;;;;;16.63;100.00;100123.28;2615739;36;20661;-53
2022/10/24 03:16:52;;;;;;;5.37;1.83;;;;;;;16.59;100.00;100119.25;2615778;36;20424;-57
2022/10/24 03:19:21;;;;;;;4.88;1.73;;;;;;;16.48;100.00;100123.34;2616810;36;20454;-57
2022/10/24 03:21:53;;;;;;;4.53;1.58;;;;;;;16.44;100.00;100122.91;2615257;36;20029;-57
2022/10/24 03:24:21;;;;;;;5.38;1.83;;;;;;;16.44;100.00;100124.75;2616031;36;20072;-53
2022/10/24 03:26:51;;;;;;;3.53;1.47;;;;;;;16.44;100.00;100122.03;2615019;36;20590;-55
2022/10/24 03:29:19;;;;;;;8.35;1.90;;;;;;;16.46;100.00;100123.53;2616735;36;20046;-55
2022/10/24 03:31:48;;;;;;;4.15;1.58;;;;;;;16.49;100.00;100126.88;2615096;31;20041;-57
2022/10/24 03:34:16;;;;;;;3.90;1.58;;;;;;;16.39;100.00;100128.03;2615914;36;20069;-54
2022/10/24 03:36:45;;;;;;;2.17;1.30;;;;;;;16.40;100.00;100126.16;2615975;36;20038;-54
2022/10/24 03:39:15;;;;;;;5.90;1.88;;;;;;;16.28;100.00;100126.69;2615449;36;20975;-57
2022/10/24 03:41:44;;;;;;;6.47;1.88;;;;;;;16.17;100.00;100119.03;2615813;36;20435;-52
2022/10/24 03:44:12;;;;;;;3.47;1.42;;;;;;;16.38;100.00;100120.91;2616147;36;20263;-53
2022/10/24 03:46:40;;;;;;;7.10;1.90;;;;;;;16.33;100.00;100123.38;2615156;36;20042;-56
2022/10/24 03:49:09;;;;;;;5.60;1.73;;;;;;;16.22;100.00;100118.44;2615981;36;20035;-53
2022/10/24 03:51:37;;;;;;;5.60;1.50;;;;;;;16.25;100.00;100120.78;2614687;36;20575;-55
2022/10/24 03:54:05;;;;;;;5.67;1.60;;;;;;;16.32;100.00;100123.59;2615528;36;20415;-54
2022/10/24 03:56:36;;;;;;;8.77;1.45;;;;;;;16.20;100.00;100126.78;2614240;36;20027;-56
2022/10/24 03:59:05;;;;;;;5.28;1.50;;;;;;;16.24;100.00;100119.13;2614346;36;20038;-50
2022/10/24 04:01:33;;;;;;;3.97;1.33;;;;;;;16.28;100.00;100123.09;2614872;36;20026;-54
2022/10/24 04:04:01;;;;;;;2.40;1.27;;;;;;;16.23;100.00;100120.97;2615636;36;20071;-56
2022/10/24 04:06:29;;;;;;;3.20;1.40;;;;;;;16.22;100.00;100121.16;2613812;36;20435;-56
2022/10/24 04:08:58;;;;;;;3.10;1.60;;;;;;;16.21;100.00;100130.34;2616273;36;20022;-57
2022/10/24 04:11:27;;;;;;;5.45;1.33;;;;;;;16.25;100.00;100126.22;2614681;31;20400;-57
2022/10/24 04:13:59;;;;;;;8.20;1.67;;;;;;;16.15;100.00;100125.66;2616558;31;20027;-52
2022/10/24 04:16:28;;;;;;;5.05;1.35;;;;;;;16.24;100.00;100136.25;2615035;31;20038;-57
2022/10/24 04:18:57;;;;;;;7.75;1.50;;;;;;;16.28;100.00;100125.81;2617015;31;20480;-56
2022/10/24 04:21:25;;;;;;;2.78;1.27;;;;;;;16.28;100.00;100123.97;2614629;36;20046;-57
2022/10/24 04:23:53;;;;;;;4.60;1.30;;;;;;;16.33;100.00;100117.09;2616596;36;20035;-57
2022/10/24 04:26:22;;;;;;;5.85;1.73;;;;;;;16.34;100.00;100121.50;2615801;36;20299;-58
2022/10/24 04:28:50;;;;;;;4.25;1.48;;;;;;;16.27;100.00;100118.72;2616415;36;20031;-54
2022/10/24 04:31:21;;;;;;;7.30;2.10;;;;;;;16.26;100.00;100112.44;2613683;36;20435;-55
2022/10/24 04:33:49;;;;;;;9.43;1.52;;;;;;;16.16;100.00;100116.50;2616981;36;20042;-56
2022/10/24 04:36:22;;;;;;;6.10;1.20;;;;;;;16.27;100.00;100110.59;2615947;36;20022;-57
2022/10/24 04:38:50;;;;;;;6.15;1.50;;;;;;;16.23;100.00;100115.53;2616747;34;20110;-54
2022/10/24 04:41:18;;;;;;;3.47;1.30;;;;;;;15.99;100.00;100103.16;2615995;31;20057;-57
2022/10/24 04:43:47;;;;;;;4.40;1.10;;;;;;;16.18;100.00;100109.84;2616469;36;20413;-56
2022/10/24 04:46:15;;;;;;;6.05;2.17;;;;;;;16.15;100.00;100115.66;2612835;31;20300;-54
2022/10/24 04:48:46;;;;;;;3.90;1.10;;;;;;;16.24;100.00;100119.94;2615069;36;20023;-57
2022/10/24 04:51:15;;;;;;;6.28;1.10;;;;;;;16.37;100.00;100111.13;2614441;36;20039;-56
2022/10/24 04:53:43;;;;;;;5.20;1.20;;;;;;;16.32;100.00;100115.44;2613788;36;20034;-56
2022/10/24 04:56:11;;;;;;;6.93;1.30;;;;;;;16.44;100.00;100112.03;2614297;36;20463;-56
2022/10/24 04:58:39;;;;;;;5.23;1.43;;;;;;;16.44;100.00;100108.44;2615584;36;20030;-57
2022/10/24 05:01:08;;;;;;;4.70;0.90;;;;;;;16.42;100.00;100116.78;2613278;31;20076;-57
2022/10/24 05:03:36;;;;;;;2.97;1.03;;;;;;;16.61;100.00;100109.06;2611178;36;20026;-55
2022/10/24 05:06:07;;;;;;;5.53;1.30;;;;;;;16.56;100.00;100111.50;2614118;36;20570;-57
2022/10/24 05:08:36;;;;;;;7.97;1.27;;;;;;;16.45;100.00;100113.69;2612298;36;20034;-54
2022/10/24 05:11:04;;;;;;;2.30;0.93;;;;;;;16.49;100.00;100110.59;2613226;36;20041;-57
2022/10/24 05:13:33;;;;;;;2.83;1.00;;;;;;;16.60;100.00;100107.34;2614647;36;20034;-58
2022/10/24 05:16:02;;;;;;;7.77;1.13;;;;;;;16.62;100.00;100110.72;2614163;31;20029;-58
2022/10/24 05:18:30;;;;;;;6.80;1.50;;;;;;;16.73;100.00;100115.63;2613272;36;20295;-58
2022/10/24 05:20:59;;;;;;;3.23;0.93;;;;;;;16.84;100.00;100118.88;2613630;36;20027;-58
2022/10/24 05:23:30;;;;;;;4.50;0.88;;;;;;;16.64;100.00;100123.06;2613848;31;20472;-58
2022/10/24 05:25:58;;;;;;;5.55;1.02;;;;;;;16.63;100.00;100113.22;2613263;36;20033;-58
2022/10/24 05:28:26;;;;;;;7.37;1.07;;;;;;;16.62;100.00;100113.44;2614853;36;20030;-57
2022/10/24 05:30:55;;;;;;;4.25;1.17;;;;;;;16.72;100.00;100116.66;2609573;36;20045;-56
2022/10/24 05:33:23;;;;;;;2.87;0.90;;;;;;;16.75;100.00;100116.28;2615528;36;20030;-57
2022/10/24 05:35:52;;;;;;;5.38;0.90;;;;;;;16.79;100.00;100109.41;2614729;36;20142;-57
2022/10/24 05:38:21;;;;;;;7.07;1.17;;;;;;;16.78;100.00;100115.03;2615757;36;20037;-58
2022/10/24 05:40:52;;;;;;;2.20;0.98;;;;;;;16.74;100.00;100113.75;2616135;36;20041;-58
2022/10/24 05:43:21;;;;;;;2.80;1.10;;;;;;;16.58;100.00;100114.88;2615058;36;20566;-58
2022/10/24 05:45:50;;;;;;;3.50;1.00;;;;;;;16.53;100.00;100111.88;2613415;36;20630;-56
2022/10/24 05:48:18;;;;;;;6.50;2.15;;;;;;;16.53;100.00;100120.03;2590654;36;20030;-56
2022/10/24 05:50:47;;;;;;;3.67;1.53;;;;;;;16.56;100.00;100123.22;2610496;31;20035;-57
2022/10/24 05:53:15;;;;;;;3.77;1.10;;;;;;;16.56;100.00;100111.50;2614324;36;20412;-58
2022/10/24 05:55:43;;;;;;;5.13;1.33;;;;;;;16.63;100.00;100113.22;2615044;31;20030;-58
2022/10/24 05:58:19;;;;;;;6.82;1.30;;;;;;;16.54;100.00;100121.72;2614450;36;20030;-59
2022/10/24 06:00:48;;;;;;;8.30;1.50;;;;;;;16.69;100.00;100117.06;2611808;31;20034;-56
2022/10/24 06:03:16;;;;;;;3.15;1.27;;;;;;;16.62;100.00;100118.88;2613786;36;20123;-58
2022/10/24 06:05:44;;;;;;;4.45;1.02;;;;;;;16.51;100.00;100116.69;2611812;36;20061;-58
2022/10/24 06:08:13;;;;;;;6.63;1.10;;;;;;;16.49;100.00;100116.00;2611601;31;20057;-56
2022/10/24 06:10:41;;;;;;;5.43;0.93;;;;;;;16.43;100.00;100113.06;2612906;36;21099;-58
2022/10/24 06:13:10;;;;;;;4.23;1.00;;;;;;;16.60;100.00;100107.34;2614489;31;20065;-58
2022/10/24 06:15:42;;;;;;;3.33;1.30;;;;;;;16.56;100.00;100116.94;2613151;36;20421;-58
2022/10/24 06:18:11;;;;;;;3.83;1.05;;;;;;;16.58;100.00;100115.69;2611199;36;20045;-58
2022/10/24 06:20:39;;;;;;;6.03;1.10;;;;;;;16.38;100.00;100118.19;2611622;36;20042;-59
2022/10/24 06:23:07;;;;;;;3.75;1.10;;;;;;;16.57;100.00;100124.06;2611709;36;20295;-58
2022/10/24 06:25:36;;;;;;;2.57;1.00;;;;;;;16.53;100.00;100117.31;2613680;36;20030;-58
2022/10/24 06:28:06;;;;;;;5.35;1.10;;;;;;;16.64;100.00;100122.25;2614759;36;20298;-58
2022/10/24 06:30:35;;;;;;;3.63;1.15;;;;;;;16.52;100.00;100121.06;2614553;36;20562;-58
2022/10/24 06:33:05;;;;;;;7.10;1.20;;;;;;;16.55;100.00;100121.53;2613154;36;20565;-58
2022/10/24 06:35:34;;;;;;;3.70;1.13;;;;;;;16.63;100.00;100120.56;2613935;36;20041;-57
2022/10/24 06:38:02;;;;;;;6.53;1.37;;;;;;;16.74;100.00;100132.78;2614762;31;20038;-59
2022/10/24 06:40:31;;;;;;;3.33;1.07;;;;;;;16.57;100.00;100129.47;2613981;36;20440;-58
2022/10/24 06:42:59;;;;;;;4.75;1.15;;;;;;;16.58;100.00;100139.31;2612416;36;20318;-59
2022/10/24 06:45:28;;;;;;;6.35;1.55;;;;;;;16.64;100.00;100136.66;2612849;31;20057;-59
2022/10/24 06:47:56;;;;;;;2.93;1.00;;;;;;;16.68;100.00;100139.00;2612520;36;20023;-58
2022/10/24 06:50:27;;;;;;;11.00;1.55;;;;;;;16.69;100.00;100129.81;2613615;36;20330;-58
2022/10/24 06:52:55;;;;;;;4.90;1.30;;;;;;;16.64;100.00;100136.66;2614736;36;20034;-58
2022/10/24 06:55:23;;;;;;;4.23;1.07;;;;;;;16.62;100.00;100137.88;2614311;36;20034;-58
2022/10/24 06:57:52;;;;;;;7.23;1.33;;;;;;;16.59;100.00;100139.13;2613807;36;20678;-58
2022/10/24 07:00:20;;;;;;;3.70;1.30;;;;;;;16.66;100.00;100133.75;2612913;36;20038;-58
2022/10/24 07:02:49;;;;;;;6.35;1.20;;;;;;;16.77;100.00;100144.09;2613411;36;20034;-59
2022/10/24 07:05:17;;;;;;;3.93;1.00;;;;;;;16.70;100.00;100151.34;2613232;36;20555;-58
2022/10/24 07:07:48;;;;;;;4.10;1.15;;;;;;;16.76;100.00;100150.56;2613157;36;20034;-60
2022/10/24 07:10:16;;;;;;;2.53;1.17;;;;;;;16.92;100.00;100159.53;2613205;36;20428;-58
2022/10/24 07:12:45;;;;;;;4.83;1.53;;;;;;;16.75;100.00;100157.03;2615303;36;20034;-57
2022/10/24 07:15:13;;;;;;;9.02;1.33;;;;;;;16.97;100.00;100157.06;2614136;36;20469;-57
2022/10/24 07:17:42;;;;;;;4.43;1.20;;;;;;;17.04;100.00;100159.84;2613396;36;20045;-58
2022/10/24 07:20:13;;;;;;;5.88;1.45;;;;;;;16.93;100.00;100158.47;2614477;36;20474;-58
2022/10/24 07:22:44;;;;;;;4.72;1.15;;;;;;;17.08;100.00;100166.59;2615342;36;20022;-59
2022/10/24 07:25:14;;;;;;;5.75;1.33;;;;;;;17.08;100.00;100169.31;2615900;36;20594;-58
2022/10/24 07:27:43;;;;;;;7.20;1.67;;;;;;;17.03;100.00;100171.75;2615343;36;20038;-59
2022/10/24 07:30:18;;;;;;;9.98;1.58;;;;;;;17.01;100.00;100177.38;2615888;36;20031;-58
2022/10/24 07:32:47;;;;;;;5.43;1.23;;;;;;;17.03;100.00;100183.47;2614832;36;20547;-59
2022/10/24 07:35:15;;;;;;;;;;;;;;;17.08;100.00;100191.06;2616622;36;20041;-57
2022/10/24 07:37:43;;;;;;;3.20;1.37;;;;;;;17.14;100.00;100182.13;2616705;36;19939;-60
2022/10/24 07:40:15;;;;;;;7.17;1.37;;;;;;;17.15;100.00;100198.22;2616341;36;20030;-58
2022/10/24 07:42:43;;;;;;;2.75;0.90;;;;;;;17.08;100.00;100202.75;2613992;31;20041;-59
2022/10/24 07:45:12;;;;;;;4.03;1.10;;;;;;;17.12;100.00;100192.31;2614084;36;20037;-58
2022/10/24 07:47:40;;;;;;;;;;;;;;;17.21;100.00;100202.06;2615916;36;20035;-58
2022/10/24 07:50:10;;;;;;;4.47;1.02;;;;;;;17.28;100.00;100199.38;2616656;36;19939;-58
2022/10/24 07:52:38;;;;;;;5.53;1.25;;;;;;;17.16;100.00;100199.06;2611241;36;20038;-58
2022/10/24 07:55:07;;;;;;;6.90;1.10;;;;;;;17.05;100.00;100205.88;2611852;36;20053;-58
2022/10/24 07:57:38;;;;;;;5.30;1.42;;;;;;;17.15;100.00;100209.13;2602649;36;20030;-58
2022/10/24 08:00:08;;;;;;;5.75;1.20;;;;;;;17.13;100.00;100210.34;2611141;36;20854;-59
2022/10/24 08:02:36;;;;;;;4.90;1.25;;;;;;;17.13;100.00;100203.00;2614469;31;20030;-58
2022/10/24 08:05:05;;;;;;;6.10;1.10;;;;;;;16.89;100.00;100211.56;2616050;36;20038;-58
2022/10/24 08:07:36;;;;;;;5.32;1.20;;;;;;;16.90;100.00;100200.50;2615028;36;20034;-57
2022/10/24 08:10:08;;;;;;;3.10;1.23;;;;;;;16.96;100.00;100212.47;2615168;36;20030;-58
2022/10/24 08:12:38;;;;;;;7.70;2.25;;;;;;;16.86;100.00;100222.78;2607245;31;20452;-58
2022/10/24 08:15:08;;;;;;;6.15;1.25;;;;;;;16.89;100.00;100219.72;2613573;36;20080;-58
2022/10/24 08:17:36;;;;;;;7.85;1.35;;;;;;;16.96;100.00;100205.16;2616567;36;20590;-57
2022/10/24 08:20:05;;;;;;;6.93;1.52;;;;;;;17.02;100.00;100219.88;2616057;31;20239;-58
2022/10/24 08:22:34;;;;;;;7.25;1.10;;;;;;;16.96;100.00;100220.63;2616016;36;20030;-59
2022/10/24 08:25:04;;;;;;;7.22;1.90;;;;;;;17.14;100.00;100225.63;2616660;36;20118;-59
2022/10/24 08:27:33;;;;;;;8.38;1.60;;;;;;;17.00;100.00;100230.06;2615892;36;20428;-57
2022/10/24 08:30:05;;;;;;;7.55;1.40;;;;;;;17.18;100.00;100229.59;2616215;36;20049;-57
2022/10/24 08:32:33;;;;;;;6.28;1.73;;;;;;;17.15;100.00;100239.03;2615628;36;20034;-57
2022/10/24 08:35:02;;;;;;;8.18;1.40;;;;;;;17.11;100.00;100245.06;2616711;36;20408;-57
2022/10/24 08:37:30;;;;;;;3.40;1.10;;;;;;;16.98;100.00;100262.06;2615274;36;20038;-57
2022/10/24 08:39:58;;;;;;;4.00;1.47;;;;;;;16.85;100.00;100251.84;2615235;36;20041;-57
2022/10/24 08:42:27;;;;;;;6.33;1.33;;;;;;;16.87;100.00;100244.38;2615633;36;20263;-57
2022/10/24 08:44:55;;;;;;;11.27;1.80;;;;;;;16.65;100.00;100254.31;2615242;36;20550;-58
2022/10/24 08:47:34;;;;;;;5.75;1.55;;;;;;;16.85;100.00;100276.31;2615601;36;20026;-57
2022/10/24 08:50:04;;;;;;;;;;;;;;;16.88;100.00;100266.97;2615298;36;20022;-57
2022/10/24 08:52:36;;;;;;;5.65;1.25;;;;;;;17.05;100.00;100273.84;2617000;36;19968;-59
2022/10/24 08:55:13;;;;;;;10.60;1.30;;;;;;;17.04;100.00;100272.16;2615484;36;20551;-57
2022/10/24 08:57:45;;;;;;;5.75;1.30;;;;;;;17.27;100.00;100276.56;2615703;36;20034;-58
2022/10/24 09:00:20;;;;;;;8.32;1.10;;;;;;;17.26;100.00;100285.78;2615312;36;20034;-57
2022/10/24 09:02:55;;;;;;;4.10;0.88;;;;;;;17.13;100.00;100283.75;2614908;36;20026;-58
2022/10/24 09:05:27;;;;;;;5.95;1.25;;;;;;;16.95;100.00;100285.03;2616076;31;20459;-58
2022/10/24 09:08:03;;;;;;;4.07;0.85;;;;;;;17.00;100.00;100287.16;2614300;36;20046;-57
2022/10/24 09:10:40;;;;;;;5.38;1.27;;;;;;;16.80;100.00;100314.09;2616316;36;20030;-56
2022/10/24 09:13:14;;;;;;;4.57;1.50;;;;;;;16.56;100.00;100310.66;2616198;36;20122;-57
2022/10/24 09:15:44;;;;;;;6.90;1.33;;;;;;;16.19;100.00;100298.03;2616161;36;20409;-58
2022/10/24 09:18:22;;;;;;;4.28;1.55;;;;;;;16.03;100.00;100324.34;2615512;36;20119;-58
2022/10/24 09:20:53;;;;;;;8.25;1.42;;;;;;;15.79;100.00;100321.84;2616027;36;20034;-58
2022/10/24 09:23:23;;;;;;;9.50;1.35;;;;;;;15.91;100.00;100323.06;2616376;36;20038;-58
2022/10/24 09:25:54;;;;;;;7.32;1.30;;;;;;;15.86;100.00;100323.63;2616303;36;20038;-58
2022/10/24 09:28:23;;;;;;;5.30;1.40;;;;;;;16.09;100.00;100318.16;2616234;36;20034;-58
2022/10/24 09:30:53;;;;;;;5.65;1.30;;;;;;;16.20;100.00;100316.00;2615484;36;20053;-58
2022/10/24 09:33:31;;;;;;;6.05;1.63;;;;;;;16.34;100.00;100323.31;2616158;36;20043;-58
2022/10/24 09:36:02;;;;;;;4.70;1.17;;;;;;;16.56;100.00;100328.81;2616769;36;20432;-58
2022/10/24 09:38:34;;;;;;;7.47;1.65;;;;;;;16.33;100.00;100339.78;2615707;36;20022;-57
2022/10/24 09:41:07;;;;;;;3.25;1.25;;;;;;;16.24;100.00;100330.91;2616229;36;20035;-58
2022/10/24 09:43:40;;;;;;;5.15;1.75;;;;;;;16.32;100.00;100329.97;2616534;36;20022;-58
2022/10/24 09:46:12;;;;;;;3.92;1.05;;;;;;;16.38;100.00;100337.34;2613655;36;20574;-58
2022/10/24 09:48:49;;;;;;;4.45;1.35;;;;;;;16.64;100.00;100358.63;2615393;36;20487;-58
2022/10/24 09:51:25;;;;;;;5.90;1.33;;;;;;;16.89;100.00;100350.19;2614898;36;20038;-59
2022/10/24 09:54:04;;;;;;;5.88;1.63;;;;;;;17.04;100.00;100351.00;2615614;36;20041;-57
2022/10/24 09:56:38;;;;;;;4.47;1.48;;;;;;;17.06;100.00;100343.47;2614147;36;20540;-57
2022/10/24 09:59:28;;;;;;;4.70;1.50;;;;;;;17.29;100.00;100343.31;2611636;36;20066;-55
2022/10/24 10:02:17;;;;;;;5.50;1.27;;;;;;;17.39;100.00;100340.31;2613781;36;20038;-56
2022/10/24 10:04:50;;;;;;;4.95;0.90;;;;;;;17.33;100.00;100351.97;2614479;36;20061;-57
2022/10/24 10:07:20;;;;;;;4.82;1.30;;;;;;;17.39;100.00;100355.75;2614772;36;20582;-56
2022/10/24 10:09:52;;;;;;;6.40;1.27;;;;;;;17.02;100.00;100355.81;2615493;36;20034;-55
2022/10/24 10:12:29;;;;;;;5.38;1.00;;;;;;;17.01;100.00;100370.41;2615294;31;20516;-54
2022/10/24 10:14:58;;;;;;;5.30;1.15;;;;;;;16.99;100.00;100373.31;2616104;36;20037;-58
2022/10/24 10:17:30;;;;;;;2.53;0.93;;;;;;;16.99;100.00;100373.31;2615341;36;20023;-58
2022/10/24 10:20:01;;;;;;;6.95;1.17;;;;;;;16.95;100.00;100376.63;2616699;31;20476;-57
2022/10/24 10:22:31;;;;;;;5.53;1.23;;;;;;;16.85;100.00;100385.03;2617530;31;20447;-55
2022/10/24 10:25:00;;;;;;;4.70;1.08;;;;;;;16.95;100.00;100390.22;2615694;36;20564;-57
2022/10/24 10:27:31;;;;;;;;;;;;;;;17.14;100.00;100391.50;2614781;36;20600;-58
2022/10/24 10:30:11;;;;;;;6.75;1.40;;;;;;;17.09;100.00;100393.94;2615553;31;19958;-56
2022/10/24 10:32:42;;;;;;;;;;;;;;;17.05;100.00;100403.50;2615456;36;20039;-58
2022/10/24 10:35:21;;;;;;;7.65;1.40;;;;;;;17.26;100.00;100409.00;2616095;36;19946;-57
2022/10/24 10:37:54;;;;;;;5.45;1.50;;;;;;;17.27;100.00;100407.09;2615726;36;20034;-58
2022/10/24 10:40:30;;;;;;;5.55;1.20;;;;;;;17.17;100.00;100394.66;2615137;36;20023;-57
2022/10/24 10:43:16;;;;;;;5.82;1.50;;;;;;;17.14;100.00;100408.63;2614192;36;20427;-57
2022/10/24 10:45:48;;;;;;;5.70;1.35;;;;;;;17.23;100.00;100394.94;2612470;36;20551;-56
2022/10/24 10:48:34;;;;;;;4.75;1.42;;;;;;;17.15;100.00;100421.22;2612583;36;20030;-56
2022/10/24 10:51:12;;;;;;;3.28;1.05;;;;;;;17.12;100.00;100427.03;2616229;36;20037;-57
2022/10/24 10:53:48;;;;;;;4.82;1.15;;;;;;;17.11;100.00;100424.50;2613944;31;20034;-56
2022/10/24 10:56:30;;;;;;;4.35;1.40;;;;;;;17.49;100.00;100427.88;2616610;36;20423;-57
2022/10/24 10:59:09;;;;;;;6.28;1.20;;;;;;;17.23;100.00;100422.16;2616305;36;20035;-54
2022/10/24 11:01:49;;;;;;;6.60;1.33;;;;;;;17.28;100.00;100416.97;2615327;36;20042;-57
2022/10/24 11:04:28;;;;;;;4.88;1.05;;;;;;;17.33;100.00;100428.13;2615358;36;20566;-57
2022/10/24 11:07:08;;;;;;;2.63;1.02;;;;;;;17.22;100.00;100443.03;2614758;36;20574;-58
2022/10/24 11:09:42;;;;;;;5.97;1.30;;;;;;;17.46;100.00;100447.31;2613564;36;20719;-57
2022/10/24 11:12:16;;;;;;;5.88;1.10;;;;;;;17.49;100.00;100444.22;2613726;31;20038;-57
2022/10/24 11:14:50;;;;;;;7.50;1.10;;;;;;;17.39;100.00;100443.69;2616978;36;20026;-57
2022/10/24 11:17:23;;;;;;;2.55;1.08;;;;;;;17.75;100.00;100440.06;2615588;36;20041;-56
2022/10/24 11:20:01;;;;;;;3.83;1.17;;;;;;;17.52;100.00;100437.56;2616182;36;20528;-56
2022/10/24 11:22:38;;;;;;;5.07;0.90;;;;;;;17.44;100.00;100446.66;2616466;36;20043;-57
2022/10/24 11:25:19;;;;;;;3.25;1.00;;;;;;;17.48;100.00;100453.41;2616141;36;20029;-57
2022/10/24 11:27:54;;;;;;;4.60;1.10;;;;;;;17.59;100.00;100453.94;2617042;36;20023;-58
2022/10/24 11:30:32;;;;;;;4.55;1.20;;;;;;;17.72;100.00;100462.25;2616582;31;20415;-57
2022/10/24 11:33:07;;;;;;;3.65;0.93;;;;;;;17.48;100.00;100475.16;2615395;36;20026;-56
2022/10/24 11:35:39;;;;;;;3.22;1.05;;;;;;;17.45;100.00;100474.72;2616950;36;20630;-57
2022/10/24 11:38:16;;;;;;;3.60;0.90;;;;;;;17.28;100.00;100479.50;2615922;36;20027;-57